sensor_id;sensor_type;location;lat;lon;timestamp;P1;durP1;ratioP1;P2;durP2;ratioP2
25359;SDS011;13311;51.386;0.016;2022-09-09T00:23:32;10.43;;;2.97;;
25359;SDS011;13311;51.386;0.016;2022-09-09T00:28:46;8.65;;;2.80;;
25359;SDS011;13311;51.386;0.016;2022-09-09T00:34:14;8.20;;;2.70;;
25359;SDS011;13311;51.386;0.016;2022-09-09T00:39:30;8.43;;;3.08;;
25359;SDS011;13311;51.386;0.016;2022-09-09T00:44:38;8.70;;;3.08;;
25359;SDS011;13311;51.386;0.016;2022-09-09T01:01:00;10.02;;;2.95;;
25359;SDS011;13311;51.386;0.016;2022-09-09T01:06:20;5.65;;;3.08;;
25359;SDS011;13311;51.386;0.016;2022-09-09T01:11:41;12.95;;;3.50;;
25359;SDS011;13311;51.386;0.016;2022-09-09T01:16:50;12.88;;;3.88;;
25359;SDS011;13311;51.386;0.016;2022-09-09T01:22:06;7.85;;;3.33;;
25359;SDS011;13311;51.386;0.016;2022-09-09T01:27:21;8.25;;;2.90;;
25359;SDS011;13311;51.386;0.016;2022-09-09T01:32:42;12.45;;;3.08;;
25359;SDS011;13311;51.386;0.016;2022-09-09T01:37:45;11.18;;;3.10;;
25359;SDS011;13311;51.386;0.016;2022-09-09T01:42:46;9.93;;;3.00;;
25359;SDS011;13311;51.386;0.016;2022-09-09T01:47:46;7.82;;;2.92;;
25359;SDS011;13311;51.386;0.016;2022-09-09T01:52:49;12.50;;;3.40;;
25359;SDS011;13311;51.386;0.016;2022-09-09T02:03:23;6.53;;;2.60;;
25359;SDS011;13311;51.386;0.016;2022-09-09T02:08:33;6.43;;;2.13;;
25359;SDS011;13311;51.386;0.016;2022-09-09T02:13:44;10.65;;;2.95;;
25359;SDS011;13311;51.386;0.016;2022-09-09T02:18:53;11.68;;;3.58;;
25359;SDS011;13311;51.386;0.016;2022-09-09T02:24:02;6.20;;;2.38;;
25359;SDS011;13311;51.386;0.016;2022-09-09T02:29:11;3.77;;;1.83;;
25359;SDS011;13311;51.386;0.016;2022-09-09T02:34:19;9.10;;;2.67;;
25359;SDS011;13311;51.386;0.016;2022-09-09T02:39:22;9.35;;;3.00;;
25359;SDS011;13311;51.386;0.016;2022-09-09T02:44:22;8.25;;;2.58;;
25359;SDS011;13311;51.386;0.016;2022-09-09T02:55:04;11.90;;;3.10;;
25359;SDS011;13311;51.386;0.016;2022-09-09T03:00:15;8.80;;;2.65;;
25359;SDS011;13311;51.386;0.016;2022-09-09T03:05:24;9.15;;;3.22;;
25359;SDS011;13311;51.386;0.016;2022-09-09T03:10:26;9.95;;;2.90;;
25359;SDS011;13311;51.386;0.016;2022-09-09T03:15:26;8.20;;;2.53;;
25359;SDS011;13311;51.386;0.016;2022-09-09T03:20:30;7.25;;;2.60;;
25359;SDS011;13311;51.386;0.016;2022-09-09T03:25:31;7.13;;;3.20;;
25359;SDS011;13311;51.386;0.016;2022-09-09T03:30:33;7.13;;;2.67;;
25359;SDS011;13311;51.386;0.016;2022-09-09T03:35:34;10.27;;;2.95;;
25359;SDS011;13311;51.386;0.016;2022-09-09T03:40:34;12.40;;;3.40;;
25359;SDS011;13311;51.386;0.016;2022-09-09T03:45:35;9.15;;;3.00;;
25359;SDS011;13311;51.386;0.016;2022-09-09T03:50:36;11.15;;;3.72;;
25359;SDS011;13311;51.386;0.016;2022-09-09T03:55:37;9.77;;;2.83;;
25359;SDS011;13311;51.386;0.016;2022-09-09T04:00:37;6.72;;;3.03;;
25359;SDS011;13311;51.386;0.016;2022-09-09T04:05:42;13.05;;;3.80;;
25359;SDS011;13311;51.386;0.016;2022-09-09T04:10:44;6.78;;;3.38;;
25359;SDS011;13311;51.386;0.016;2022-09-09T04:15:53;9.35;;;3.00;;
25359;SDS011;13311;51.386;0.016;2022-09-09T04:20:56;11.65;;;3.85;;
25359;SDS011;13311;51.386;0.016;2022-09-09T04:25:58;10.63;;;3.70;;
25359;SDS011;13311;51.386;0.016;2022-09-09T04:31:07;16.77;;;2.90;;
25359;SDS011;13311;51.386;0.016;2022-09-09T04:36:13;8.48;;;4.13;;
25359;SDS011;13311;51.386;0.016;2022-09-09T04:41:14;14.25;;;4.30;;
25359;SDS011;13311;51.386;0.016;2022-09-09T04:46:16;8.52;;;3.40;;
25359;SDS011;13311;51.386;0.016;2022-09-09T04:51:17;8.27;;;3.38;;
25359;SDS011;13311;51.386;0.016;2022-09-09T04:56:18;6.13;;;2.17;;
25359;SDS011;13311;51.386;0.016;2022-09-09T05:01:20;8.48;;;3.38;;
25359;SDS011;13311;51.386;0.016;2022-09-09T05:06:22;6.55;;;3.05;;
25359;SDS011;13311;51.386;0.016;2022-09-09T05:11:24;9.18;;;3.58;;
25359;SDS011;13311;51.386;0.016;2022-09-09T05:16:27;8.23;;;3.88;;
25359;SDS011;13311;51.386;0.016;2022-09-09T05:21:27;9.65;;;3.70;;
25359;SDS011;13311;51.386;0.016;2022-09-09T05:26:30;13.95;;;4.85;;
25359;SDS011;13311;51.386;0.016;2022-09-09T05:31:32;8.50;;;4.88;;
25359;SDS011;13311;51.386;0.016;2022-09-09T05:36:33;9.88;;;5.03;;
25359;SDS011;13311;51.386;0.016;2022-09-09T05:41:33;11.00;;;5.30;;
25359;SDS011;13311;51.386;0.016;2022-09-09T05:46:35;9.23;;;4.82;;
25359;SDS011;13311;51.386;0.016;2022-09-09T05:51:36;13.68;;;5.18;;
25359;SDS011;13311;51.386;0.016;2022-09-09T05:56:37;13.35;;;5.30;;
25359;SDS011;13311;51.386;0.016;2022-09-09T06:01:38;11.55;;;4.63;;
25359;SDS011;13311;51.386;0.016;2022-09-09T06:06:40;8.55;;;4.30;;
25359;SDS011;13311;51.386;0.016;2022-09-09T06:11:42;15.70;;;5.38;;
25359;SDS011;13311;51.386;0.016;2022-09-09T06:16:43;13.30;;;4.72;;
25359;SDS011;13311;51.386;0.016;2022-09-09T06:21:44;8.30;;;5.22;;
25359;SDS011;13311;51.386;0.016;2022-09-09T06:26:44;10.85;;;5.05;;
25359;SDS011;13311;51.386;0.016;2022-09-09T06:31:45;11.95;;;6.13;;
25359;SDS011;13311;51.386;0.016;2022-09-09T06:36:47;4.35;;;2.75;;
25359;SDS011;13311;51.386;0.016;2022-09-09T06:41:48;10.68;;;4.05;;
25359;SDS011;13311;51.386;0.016;2022-09-09T06:46:49;7.35;;;4.00;;
25359;SDS011;13311;51.386;0.016;2022-09-09T06:51:50;9.75;;;3.35;;
25359;SDS011;13311;51.386;0.016;2022-09-09T06:56:52;5.88;;;2.78;;
25359;SDS011;13311;51.386;0.016;2022-09-09T07:01:52;9.82;;;4.07;;
25359;SDS011;13311;51.386;0.016;2022-09-09T07:06:54;6.47;;;3.10;;
25359;SDS011;13311;51.386;0.016;2022-09-09T07:11:55;7.72;;;4.07;;
25359;SDS011;13311;51.386;0.016;2022-09-09T07:16:59;8.13;;;3.35;;
25359;SDS011;13311;51.386;0.016;2022-09-09T07:22:00;8.65;;;3.90;;
25359;SDS011;13311;51.386;0.016;2022-09-09T07:27:02;6.47;;;4.05;;
25359;SDS011;13311;51.386;0.016;2022-09-09T07:32:03;8.50;;;4.10;;
25359;SDS011;13311;51.386;0.016;2022-09-09T07:37:04;7.28;;;4.35;;
25359;SDS011;13311;51.386;0.016;2022-09-09T07:42:05;7.53;;;3.85;;
25359;SDS011;13311;51.386;0.016;2022-09-09T07:47:06;8.35;;;4.40;;
25359;SDS011;13311;51.386;0.016;2022-09-09T07:52:07;11.77;;;4.70;;
25359;SDS011;13311;51.386;0.016;2022-09-09T07:57:08;5.15;;;3.30;;
25359;SDS011;13311;51.386;0.016;2022-09-09T08:02:09;7.10;;;3.83;;
25359;SDS011;13311;51.386;0.016;2022-09-09T08:07:09;5.65;;;4.05;;
25359;SDS011;13311;51.386;0.016;2022-09-09T08:12:10;8.18;;;4.68;;
25359;SDS011;13311;51.386;0.016;2022-09-09T08:17:12;6.00;;;4.05;;
25359;SDS011;13311;51.386;0.016;2022-09-09T08:22:13;6.47;;;3.75;;
25359;SDS011;13311;51.386;0.016;2022-09-09T08:27:14;8.23;;;4.40;;
25359;SDS011;13311;51.386;0.016;2022-09-09T08:32:15;5.57;;;3.40;;
25359;SDS011;13311;51.386;0.016;2022-09-09T08:37:16;6.80;;;4.30;;
25359;SDS011;13311;51.386;0.016;2022-09-09T08:42:21;5.82;;;3.35;;
25359;SDS011;13311;51.386;0.016;2022-09-09T08:58:32;6.95;;;3.92;;
25359;SDS011;13311;51.386;0.016;2022-09-09T09:09:06;8.23;;;3.35;;
25359;SDS011;13311;51.386;0.016;2022-09-09T09:19:17;5.97;;;3.88;;
25359;SDS011;13311;51.386;0.016;2022-09-09T09:24:20;5.53;;;3.63;;
25359;SDS011;13311;51.386;0.016;2022-09-09T09:29:32;6.50;;;4.72;;
25359;SDS011;13311;51.386;0.016;2022-09-09T09:34:35;7.45;;;5.35;;
25359;SDS011;13311;51.386;0.016;2022-09-09T09:39:35;10.52;;;6.55;;
25359;SDS011;13311;51.386;0.016;2022-09-09T09:44:38;9.65;;;6.57;;
25359;SDS011;13311;51.386;0.016;2022-09-09T09:49:39;9.00;;;6.93;;
25359;SDS011;13311;51.386;0.016;2022-09-09T09:54:55;10.50;;;7.57;;
25359;SDS011;13311;51.386;0.016;2022-09-09T10:05:22;13.82;;;8.10;;
25359;SDS011;13311;51.386;0.016;2022-09-09T10:10:26;12.32;;;8.13;;
25359;SDS011;13311;51.386;0.016;2022-09-09T10:27:19;15.90;;;9.52;;
25359;SDS011;13311;51.386;0.016;2022-09-09T11:00:06;14.20;;;6.90;;
25359;SDS011;13311;51.386;0.016;2022-09-09T11:16:11;6.07;;;3.60;;
25359;SDS011;13311;51.386;0.016;2022-09-09T11:21:37;2.83;;;1.98;;
25359;SDS011;13311;51.386;0.016;2022-09-09T11:26:54;2.92;;;2.60;;
25359;SDS011;13311;51.386;0.016;2022-09-09T11:37:43;5.53;;;2.50;;
25359;SDS011;13311;51.386;0.016;2022-09-09T11:43:13;4.25;;;2.75;;
25359;SDS011;13311;51.386;0.016;2022-09-09T11:48:38;7.13;;;3.35;;
25359;SDS011;13311;51.386;0.016;2022-09-09T11:54:01;2.78;;;2.30;;
25359;SDS011;13311;51.386;0.016;2022-09-09T11:59:29;5.35;;;2.00;;
25359;SDS011;13311;51.386;0.016;2022-09-09T12:04:33;3.95;;;2.03;;
25359;SDS011;13311;51.386;0.016;2022-09-09T12:14:56;2.92;;;2.28;;
25359;SDS011;13311;51.386;0.016;2022-09-09T12:20:22;6.32;;;2.45;;
25359;SDS011;13311;51.386;0.016;2022-09-09T12:31:08;4.78;;;2.50;;
25359;SDS011;13311;51.386;0.016;2022-09-09T12:36:28;4.53;;;2.40;;
25359;SDS011;13311;51.386;0.016;2022-09-09T12:41:30;3.45;;;1.90;;
25359;SDS011;13311;51.386;0.016;2022-09-09T12:46:33;2.60;;;1.80;;
25359;SDS011;13311;51.386;0.016;2022-09-09T12:51:40;2.97;;;1.73;;
25359;SDS011;13311;51.386;0.016;2022-09-09T12:56:45;4.78;;;2.08;;
25359;SDS011;13311;51.386;0.016;2022-09-09T13:01:54;4.03;;;2.50;;
25359;SDS011;13311;51.386;0.016;2022-09-09T13:07:05;2.88;;;2.35;;
25359;SDS011;13311;51.386;0.016;2022-09-09T13:12:12;4.57;;;2.00;;
25359;SDS011;13311;51.386;0.016;2022-09-09T13:17:23;4.63;;;2.22;;
25359;SDS011;13311;51.386;0.016;2022-09-09T13:22:30;3.80;;;2.67;;
25359;SDS011;13311;51.386;0.016;2022-09-09T13:27:36;4.45;;;2.60;;
25359;SDS011;13311;51.386;0.016;2022-09-09T13:32:42;2.90;;;1.80;;
25359;SDS011;13311;51.386;0.016;2022-09-09T13:37:44;3.38;;;2.58;;
25359;SDS011;13311;51.386;0.016;2022-09-09T13:42:45;3.88;;;2.30;;
25359;SDS011;13311;51.386;0.016;2022-09-09T13:47:46;4.05;;;2.58;;
25359;SDS011;13311;51.386;0.016;2022-09-09T13:52:52;3.55;;;2.63;;
25359;SDS011;13311;51.386;0.016;2022-09-09T13:58:01;5.15;;;2.40;;
25359;SDS011;13311;51.386;0.016;2022-09-09T14:03:05;5.65;;;2.92;;
25359;SDS011;13311;51.386;0.016;2022-09-09T14:08:07;2.60;;;2.05;;
25359;SDS011;13311;51.386;0.016;2022-09-09T14:13:23;3.13;;;2.28;;
25359;SDS011;13311;51.386;0.016;2022-09-09T14:18:24;4.22;;;2.03;;
25359;SDS011;13311;51.386;0.016;2022-09-09T14:23:25;3.60;;;2.47;;
25359;SDS011;13311;51.386;0.016;2022-09-09T14:28:26;3.22;;;2.35;;
25359;SDS011;13311;51.386;0.016;2022-09-09T14:33:28;3.75;;;1.80;;
25359;SDS011;13311;51.386;0.016;2022-09-09T14:38:30;3.20;;;2.00;;
25359;SDS011;13311;51.386;0.016;2022-09-09T14:43:33;3.50;;;2.42;;
25359;SDS011;13311;51.386;0.016;2022-09-09T14:48:34;8.43;;;2.53;;
25359;SDS011;13311;51.386;0.016;2022-09-09T14:53:36;4.43;;;1.83;;
25359;SDS011;13311;51.386;0.016;2022-09-09T14:58:37;3.60;;;1.90;;
25359;SDS011;13311;51.386;0.016;2022-09-09T15:03:38;6.15;;;2.28;;
25359;SDS011;13311;51.386;0.016;2022-09-09T15:08:44;2.22;;;1.40;;
25359;SDS011;13311;51.386;0.016;2022-09-09T15:13:45;1.80;;;1.02;;
25359;SDS011;13311;51.386;0.016;2022-09-09T15:18:49;1.58;;;1.00;;
25359;SDS011;13311;51.386;0.016;2022-09-09T15:23:53;2.72;;;1.38;;
25359;SDS011;13311;51.386;0.016;2022-09-09T15:28:55;4.90;;;1.50;;
25359;SDS011;13311;51.386;0.016;2022-09-09T15:34:03;3.30;;;1.20;;
25359;SDS011;13311;51.386;0.016;2022-09-09T15:39:12;2.65;;;1.20;;
25359;SDS011;13311;51.386;0.016;2022-09-09T15:44:15;2.92;;;1.15;;
25359;SDS011;13311;51.386;0.016;2022-09-09T15:49:18;1.80;;;0.85;;
25359;SDS011;13311;51.386;0.016;2022-09-09T15:54:27;2.10;;;1.30;;
25359;SDS011;13311;51.386;0.016;2022-09-09T15:59:32;1.85;;;1.20;;
25359;SDS011;13311;51.386;0.016;2022-09-09T16:04:34;2.38;;;0.93;;
25359;SDS011;13311;51.386;0.016;2022-09-09T16:09:36;15.25;;;3.75;;
25359;SDS011;13311;51.386;0.016;2022-09-09T16:14:37;6.13;;;2.42;;
25359;SDS011;13311;51.386;0.016;2022-09-09T16:19:38;3.22;;;1.52;;
25359;SDS011;13311;51.386;0.016;2022-09-09T16:24:39;2.72;;;2.03;;
25359;SDS011;13311;51.386;0.016;2022-09-09T16:29:40;5.15;;;2.10;;
25359;SDS011;13311;51.386;0.016;2022-09-09T16:34:41;6.57;;;2.25;;
25359;SDS011;13311;51.386;0.016;2022-09-09T16:39:42;6.18;;;2.70;;
25359;SDS011;13311;51.386;0.016;2022-09-09T16:44:43;4.80;;;2.70;;
25359;SDS011;13311;51.386;0.016;2022-09-09T16:49:44;6.22;;;3.40;;
25359;SDS011;13311;51.386;0.016;2022-09-09T16:54:44;5.50;;;3.20;;
25359;SDS011;13311;51.386;0.016;2022-09-09T16:59:45;5.30;;;2.97;;
25359;SDS011;13311;51.386;0.016;2022-09-09T17:04:46;4.38;;;2.88;;
25359;SDS011;13311;51.386;0.016;2022-09-09T17:09:47;6.05;;;3.25;;
25359;SDS011;13311;51.386;0.016;2022-09-09T17:14:48;4.45;;;3.25;;
25359;SDS011;13311;51.386;0.016;2022-09-09T17:19:50;4.72;;;3.65;;
25359;SDS011;13311;51.386;0.016;2022-09-09T17:24:51;4.80;;;3.60;;
25359;SDS011;13311;51.386;0.016;2022-09-09T17:29:52;5.50;;;3.53;;
25359;SDS011;13311;51.386;0.016;2022-09-09T17:34:52;5.82;;;3.33;;
25359;SDS011;13311;51.386;0.016;2022-09-09T17:39:53;5.07;;;3.80;;
25359;SDS011;13311;51.386;0.016;2022-09-09T17:44:54;5.13;;;3.20;;
25359;SDS011;13311;51.386;0.016;2022-09-09T17:49:54;4.28;;;3.33;;
25359;SDS011;13311;51.386;0.016;2022-09-09T17:54:55;8.77;;;3.85;;
25359;SDS011;13311;51.386;0.016;2022-09-09T17:59:56;6.38;;;3.72;;
25359;SDS011;13311;51.386;0.016;2022-09-09T18:04:57;5.75;;;4.03;;
25359;SDS011;13311;51.386;0.016;2022-09-09T18:09:58;7.35;;;4.30;;
25359;SDS011;13311;51.386;0.016;2022-09-09T18:14:58;7.43;;;3.97;;
25359;SDS011;13311;51.386;0.016;2022-09-09T18:19:59;6.53;;;4.78;;
25359;SDS011;13311;51.386;0.016;2022-09-09T18:25:00;11.13;;;5.45;;
25359;SDS011;13311;51.386;0.016;2022-09-09T18:30:01;7.30;;;5.55;;
25359;SDS011;13311;51.386;0.016;2022-09-09T18:35:02;7.80;;;5.60;;
25359;SDS011;13311;51.386;0.016;2022-09-09T18:40:03;6.40;;;4.68;;
25359;SDS011;13311;51.386;0.016;2022-09-09T18:45:05;5.40;;;4.47;;
25359;SDS011;13311;51.386;0.016;2022-09-09T18:50:06;5.60;;;4.32;;
25359;SDS011;13311;51.386;0.016;2022-09-09T18:55:07;5.63;;;3.58;;
25359;SDS011;13311;51.386;0.016;2022-09-09T19:00:09;3.95;;;3.28;;
25359;SDS011;13311;51.386;0.016;2022-09-09T19:05:10;7.30;;;3.67;;
25359;SDS011;13311;51.386;0.016;2022-09-09T19:10:11;5.55;;;3.13;;
25359;SDS011;13311;51.386;0.016;2022-09-09T19:15:12;5.55;;;3.20;;
25359;SDS011;13311;51.386;0.016;2022-09-09T19:20:13;5.90;;;3.40;;
25359;SDS011;13311;51.386;0.016;2022-09-09T19:25:15;4.78;;;3.20;;
25359;SDS011;13311;51.386;0.016;2022-09-09T19:30:16;5.57;;;3.38;;
25359;SDS011;13311;51.386;0.016;2022-09-09T19:35:17;5.10;;;4.07;;
25359;SDS011;13311;51.386;0.016;2022-09-09T19:40:19;6.45;;;4.40;;
25359;SDS011;13311;51.386;0.016;2022-09-09T19:45:21;9.32;;;5.30;;
25359;SDS011;13311;51.386;0.016;2022-09-09T19:50:22;6.50;;;4.80;;
25359;SDS011;13311;51.386;0.016;2022-09-09T19:55:23;6.90;;;5.22;;
25359;SDS011;13311;51.386;0.016;2022-09-09T20:00:24;5.80;;;3.95;;
25359;SDS011;13311;51.386;0.016;2022-09-09T20:05:25;6.22;;;3.42;;
25359;SDS011;13311;51.386;0.016;2022-09-09T20:10:25;4.55;;;3.00;;
25359;SDS011;13311;51.386;0.016;2022-09-09T20:15:26;5.55;;;3.05;;
25359;SDS011;13311;51.386;0.016;2022-09-09T20:20:27;4.55;;;2.55;;
25359;SDS011;13311;51.386;0.016;2022-09-09T20:25:28;5.45;;;2.90;;
25359;SDS011;13311;51.386;0.016;2022-09-09T20:30:28;5.20;;;2.42;;
25359;SDS011;13311;51.386;0.016;2022-09-09T20:35:30;2.83;;;2.03;;
25359;SDS011;13311;51.386;0.016;2022-09-09T20:40:35;2.70;;;2.47;;
25359;SDS011;13311;51.386;0.016;2022-09-09T20:45:37;3.95;;;2.75;;
25359;SDS011;13311;51.386;0.016;2022-09-09T20:50:38;4.90;;;2.63;;
25359;SDS011;13311;51.386;0.016;2022-09-09T20:55:39;4.45;;;2.65;;
25359;SDS011;13311;51.386;0.016;2022-09-09T21:00:40;5.50;;;3.22;;
25359;SDS011;13311;51.386;0.016;2022-09-09T21:05:41;4.93;;;3.17;;
25359;SDS011;13311;51.386;0.016;2022-09-09T21:10:44;7.22;;;2.80;;
25359;SDS011;13311;51.386;0.016;2022-09-09T21:15:46;9.07;;;3.05;;
25359;SDS011;13311;51.386;0.016;2022-09-09T21:20:48;3.97;;;2.78;;
25359;SDS011;13311;51.386;0.016;2022-09-09T21:25:49;4.20;;;2.90;;
25359;SDS011;13311;51.386;0.016;2022-09-09T21:30:51;5.45;;;3.50;;
25359;SDS011;13311;51.386;0.016;2022-09-09T21:35:58;5.30;;;3.53;;
25359;SDS011;13311;51.386;0.016;2022-09-09T21:41:04;4.95;;;3.60;;
25359;SDS011;13311;51.386;0.016;2022-09-09T21:46:13;5.70;;;3.30;;
25359;SDS011;13311;51.386;0.016;2022-09-09T21:51:15;7.25;;;3.80;;
25359;SDS011;13311;51.386;0.016;2022-09-09T21:56:17;4.43;;;3.83;;
25359;SDS011;13311;51.386;0.016;2022-09-09T22:01:18;4.20;;;3.80;;
25359;SDS011;13311;51.386;0.016;2022-09-09T22:06:20;5.38;;;4.15;;
25359;SDS011;13311;51.386;0.016;2022-09-09T22:11:21;6.80;;;3.97;;
25359;SDS011;13311;51.386;0.016;2022-09-09T22:16:22;6.40;;;3.80;;
25359;SDS011;13311;51.386;0.016;2022-09-09T22:21:24;7.50;;;3.83;;
25359;SDS011;13311;51.386;0.016;2022-09-09T22:26:27;8.40;;;4.25;;
25359;SDS011;13311;51.386;0.016;2022-09-09T22:31:31;6.50;;;4.53;;
25359;SDS011;13311;51.386;0.016;2022-09-09T22:36:33;8.25;;;4.45;;
25359;SDS011;13311;51.386;0.016;2022-09-09T22:41:34;6.70;;;5.43;;
25359;SDS011;13311;51.386;0.016;2022-09-09T22:46:35;6.57;;;4.85;;
25359;SDS011;13311;51.386;0.016;2022-09-09T22:51:37;7.28;;;5.30;;
25359;SDS011;13311;51.386;0.016;2022-09-09T22:56:47;8.81;;;5.06;;
25359;SDS011;13311;51.386;0.016;2022-09-09T23:01:51;9.35;;;5.18;;
25359;SDS011;13311;51.386;0.016;2022-09-09T23:06:51;10.70;;;5.03;;
25359;SDS011;13311;51.386;0.016;2022-09-09T23:11:52;7.82;;;5.20;;
25359;SDS011;13311;51.386;0.016;2022-09-09T23:16:55;7.03;;;5.10;;
25359;SDS011;13311;51.386;0.016;2022-09-09T23:21:56;8.23;;;5.85;;
25359;SDS011;13311;51.386;0.016;2022-09-09T23:26:57;9.57;;;5.60;;
25359;SDS011;13311;51.386;0.016;2022-09-09T23:31:58;6.72;;;5.70;;
25359;SDS011;13311;51.386;0.016;2022-09-09T23:36:58;9.40;;;5.63;;
25359;SDS011;13311;51.386;0.016;2022-09-09T23:41:59;9.82;;;6.72;;
25359;SDS011;13311;51.386;0.016;2022-09-09T23:47:00;11.40;;;7.35;;
25359;SDS011;13311;51.386;0.016;2022-09-09T23:52:02;7.72;;;6.28;;
25359;SDS011;13311;51.386;0.016;2022-09-09T23:57:04;10.75;;;7.13;;
